Time;durP1;ratioP1;P1;durP2;ratioP2;P2;SDS_P1;SDS_P2;PMS_P1;PMS_P2;Temp;Humidity;BMP_temperature;BMP_pressure;BME280_temperature;BME280_humidity;BME280_pressure;Samples;Min_cycle;Max_cycle;Signal;HPM_P1;HPM_P2
2021/12/18 00:03:16;;;;;;;34.20;12.50;;;;;;;2.39;91.73;100491.03;4013452;87;21673;-88
2021/12/18 00:09:18;;;;;;;25.97;10.72;;;;;;;2.38;91.82;100485.34;3939381;89;21120;-87
2021/12/18 00:15:22;;;;;;;33.23;12.15;;;;;;;2.31;91.79;100492.19;3884188;90;21083;-87
2021/12/18 00:21:26;;;;;;;23.77;10.48;;;;;;;2.26;91.69;100516.00;4025254;87;21044;-87
2021/12/18 00:27:28;;;;;;;27.02;10.03;;;;;;;2.22;91.96;100537.12;4043148;86;21943;-87
2021/12/18 00:33:29;;;;;;;22.15;8.80;;;;;;;2.22;92.18;100535.77;4032066;87;21106;-86
2021/12/18 00:39:33;;;;;;;26.40;8.73;;;;;;;2.21;92.04;100536.88;4024755;87;21546;-87
2021/12/18 00:45:35;;;;;;;26.80;9.85;;;;;;;2.20;92.31;100538.76;4019915;87;21080;-87
2021/12/18 00:51:36;;;;;;;25.82;8.58;;;;;;;2.22;92.28;100546.05;4023560;87;21095;-87
2021/12/18 00:57:37;;;;;;;24.20;8.63;;;;;;;2.19;92.42;100556.07;4032341;87;21080;-88
2021/12/18 01:03:42;;;;;;;20.90;8.90;;;;;;;2.20;92.45;100545.52;3986612;87;21705;-88
2021/12/18 01:10:12;;;;;;;18.70;7.75;;;;;;;2.21;92.43;100549.03;4000830;87;21128;-88
2021/12/18 01:16:16;;;;;;;20.88;8.40;;;;;;;2.19;92.47;100545.27;4041773;87;21132;-88
2021/12/18 01:28:32;;;;;;;20.05;7.80;;;;;;;2.20;92.43;100563.08;3993032;87;21064;-87
2021/12/18 01:34:33;;;;;;;13.95;6.33;;;;;;;2.20;92.54;100560.38;4022976;87;21637;-87
2021/12/18 01:40:35;;;;;;;20.52;6.83;;;;;;;2.19;92.53;100545.27;3997470;87;21079;-87
2021/12/18 01:46:50;;;;;;;19.82;7.05;;;;;;;2.18;92.34;100546.33;3989519;87;21108;-87
2021/12/18 01:52:45;;;;;;;15.93;5.85;;;;;;;2.16;92.50;100553.91;3914312;89;21106;-87
2021/12/18 01:58:47;;;;;;;16.93;6.53;;;;;;;2.18;92.47;100565.78;3939046;87;21092;-89
2021/12/18 02:04:49;;;;;;;17.42;6.92;;;;;;;2.17;92.67;100577.16;3938534;89;21064;-87
2021/12/18 02:10:57;;;;;;;20.20;7.97;;;;;;;2.18;93.01;100581.45;3942856;89;21121;-89
2021/12/18 02:23:16;;;;;;;20.88;8.98;;;;;;;2.17;92.93;100596.59;3942904;88;21146;-89
2021/12/18 02:29:17;;;;;;;24.47;9.50;;;;;;;2.12;93.03;100587.98;3933734;89;21134;-88
2021/12/18 02:35:36;;;;;;;22.00;8.75;;;;;;;2.12;93.00;100585.28;3942805;89;21153;-88
2021/12/18 02:41:40;;;;;;;19.27;8.63;;;;;;;2.11;92.86;100590.97;3961493;87;21078;-89
2021/12/18 02:47:40;;;;;;;23.65;9.03;;;;;;;2.12;92.99;100587.17;3944389;89;21668;-87
2021/12/18 02:53:49;;;;;;;28.07;9.13;;;;;;;2.11;93.13;100574.23;3963617;87;21108;-89
2021/12/18 02:59:54;;;;;;;23.45;10.13;;;;;;;2.11;93.22;100568.01;4011681;86;21053;-88
2021/12/18 03:31:00;;;;;;;24.30;9.93;;;;;;;1.90;93.58;100606.49;4021990;87;21091;-86
2021/12/18 03:37:02;;;;;;;21.45;11.35;;;;;;;1.89;93.69;100614.88;4003458;87;21587;-88
2021/12/18 03:43:04;;;;;;;22.82;11.03;;;;;;;1.88;93.73;100620.02;4046410;86;21032;-86
2021/12/18 03:49:05;;;;;;;25.90;10.20;;;;;;;1.88;93.72;100614.62;4032888;86;21076;-88
2021/12/18 03:55:07;;;;;;;18.92;9.85;;;;;;;1.85;93.93;100617.31;4027586;87;21119;-91
2021/12/18 04:01:09;;;;;;;28.45;9.73;;;;;;;1.85;93.88;100625.98;3958025;87;21064;-88
2021/12/18 04:07:11;;;;;;;23.20;10.38;;;;;;;1.81;94.06;100632.48;4027511;86;21104;-90
2021/12/18 04:13:12;;;;;;;21.42;10.05;;;;;;;1.82;93.96;100640.05;4003600;86;21118;-87
2021/12/18 04:19:13;;;;;;;21.70;11.18;;;;;;;1.80;94.27;100641.67;4014225;87;21068;-90
2021/12/18 04:25:16;;;;;;;23.70;10.95;;;;;;;1.85;94.35;100635.44;4009051;86;22371;-86
2021/12/18 04:31:19;;;;;;;18.30;8.73;;;;;;;1.85;94.47;100621.37;4038101;87;21547;-87
2021/12/18 04:37:21;;;;;;;20.25;9.15;;;;;;;1.82;94.35;100618.44;4012475;87;21079;-87
2021/12/18 04:43:26;;;;;;;25.35;9.73;;;;;;;1.83;94.60;100611.94;3977131;83;57993;-87
2021/12/18 04:49:28;;;;;;;23.62;11.30;;;;;;;1.81;94.65;100606.00;4041066;87;21092;-87
2021/12/18 04:55:29;;;;;;;27.95;12.15;;;;;;;1.80;94.68;100612.50;3990688;87;21096;-89
2021/12/18 05:01:38;;;;;;;25.65;11.35;;;;;;;1.79;94.80;100618.44;3960291;88;21105;-86
2021/12/18 05:07:39;;;;;;;25.55;12.63;;;;;;;1.80;94.86;100626.00;3945548;89;21183;-88
2021/12/18 05:13:41;;;;;;;30.02;13.30;;;;;;;1.82;94.97;100616.53;3913404;88;21137;-87
2021/12/18 05:19:43;;;;;;;34.43;13.05;;;;;;;1.81;94.98;100624.38;3946653;87;21059;-89
2021/12/18 05:25:44;;;;;;;22.93;13.13;;;;;;;1.80;94.97;100620.07;3931168;88;22486;-87
2021/12/18 05:31:48;;;;;;;25.80;12.95;;;;;;;1.80;95.08;100629.52;3959780;88;21864;-89
2021/12/18 05:37:52;;;;;;;29.02;13.03;;;;;;;1.79;95.07;100625.19;3945557;89;21080;-88
2021/12/18 05:43:52;;;;;;;28.92;13.22;;;;;;;1.79;95.05;100627.07;3915043;89;21104;-87
2021/12/18 05:49:54;;;;;;;21.93;13.53;;;;;;;1.77;95.25;100619.25;3953961;88;21463;-87
2021/12/18 05:55:55;;;;;;;26.12;13.75;;;;;;;1.75;94.98;100633.59;3967299;85;21108;-88
2021/12/18 06:01:57;;;;;;;34.08;15.43;;;;;;;1.73;94.96;100637.10;4004612;87;21066;-87
2021/12/18 06:07:58;;;;;;;28.62;14.45;;;;;;;1.72;95.09;100638.73;4007164;87;21129;-86
2021/12/18 06:14:00;;;;;;;33.65;15.70;;;;;;;1.70;94.95;100653.86;4020382;87;21085;-86
2021/12/18 06:20:12;;;;;;;39.50;20.82;;;;;;;1.69;94.96;100646.85;4003163;87;21141;-87
2021/12/18 06:26:09;;;;;;;40.85;22.62;;;;;;;1.69;95.03;100650.90;3973101;88;21151;-88
2021/12/18 06:32:11;;;;;;;45.35;22.27;;;;;;;1.68;94.99;100650.61;4010315;87;21097;-88
2021/12/18 06:38:12;;;;;;;38.53;19.77;;;;;;;1.70;95.15;100660.61;4021988;87;21046;-88
2021/12/18 06:44:14;;;;;;;36.38;18.73;;;;;;;1.73;95.08;100655.18;4016446;87;21042;-86
2021/12/18 06:50:16;;;;;;;37.48;17.57;;;;;;;1.70;94.97;100640.36;4016158;87;21595;-87
2021/12/18 06:56:17;;;;;;;29.70;16.45;;;;;;;1.70;94.97;100655.20;4004976;87;21104;-88
2021/12/18 07:02:20;;;;;;;31.45;16.40;;;;;;;1.69;94.99;100652.78;4048092;86;21148;-88
2021/12/18 07:08:21;;;;;;;33.38;17.17;;;;;;;1.69;94.99;100648.20;4046856;86;21093;-87
2021/12/18 07:14:23;;;;;;;40.28;18.60;;;;;;;1.69;95.05;100642.80;4050933;86;21114;-86
2021/12/18 07:20:24;;;;;;;30.00;16.97;;;;;;;1.74;95.19;100631.95;4046969;86;21066;-89
2021/12/18 07:26:25;;;;;;;32.65;15.83;;;;;;;1.78;95.21;100623.58;4039122;86;21057;-86
2021/12/18 07:32:27;;;;;;;32.05;16.62;;;;;;;1.80;95.25;100628.70;4049981;86;21054;-87
2021/12/18 07:38:28;;;;;;;39.05;18.12;;;;;;;1.83;94.92;100649.22;4041276;86;21046;-87
2021/12/18 07:44:29;;;;;;;36.77;19.23;;;;;;;1.84;95.18;100628.40;4042978;86;21114;-88
2021/12/18 07:50:31;;;;;;;39.50;18.65;;;;;;;1.85;95.15;100638.92;4047711;86;21112;-88
2021/12/18 07:56:34;;;;;;;35.17;16.82;;;;;;;1.83;94.92;100633.02;4052397;86;21052;-87
2021/12/18 08:02:37;;;;;;;34.45;17.77;;;;;;;1.85;94.87;100640.83;4031724;86;21066;-87
2021/12/18 08:08:39;;;;;;;41.85;20.00;;;;;;;1.84;95.09;100635.97;4057957;86;21647;-89
2021/12/18 08:14:41;;;;;;;33.13;19.10;;;;;;;1.89;95.04;100621.09;4061900;86;21128;-87
2021/12/18 08:20:42;;;;;;;37.30;19.23;;;;;;;1.97;95.29;100622.39;4059342;86;21366;-87
2021/12/18 08:26:44;;;;;;;36.17;19.52;;;;;;;2.09;95.13;100633.66;4050633;86;21028;-88
2021/12/18 08:32:45;;;;;;;44.42;21.17;;;;;;;2.24;95.29;100650.58;4052022;86;21077;-88
2021/12/18 08:38:47;;;;;;;33.13;17.45;;;;;;;2.31;94.96;100652.97;4034462;86;21063;-88
2021/12/18 08:44:48;;;;;;;32.73;17.40;;;;;;;2.34;94.81;100634.84;4057053;86;21100;-89
2021/12/18 08:50:50;;;;;;;36.10;15.98;;;;;;;2.45;94.64;100648.01;4059095;86;21082;-90
2021/12/18 08:56:51;;;;;;;30.62;15.70;;;;;;;2.55;94.59;100650.62;4036919;86;21094;-88
2021/12/18 09:03:00;;;;;;;32.83;15.53;;;;;;;2.53;94.12;100630.37;4013121;87;21060;-86
2021/12/18 09:09:03;;;;;;;31.02;13.78;;;;;;;2.47;93.83;100640.97;3998362;86;21635;-87
2021/12/18 09:15:06;;;;;;;26.62;13.40;;;;;;;2.40;93.66;100636.41;4012730;87;21066;-87
2021/12/18 09:21:08;;;;;;;25.72;11.85;;;;;;;2.41;93.52;100628.02;4002269;87;22099;-90
2021/12/18 09:27:11;;;;;;;23.55;12.85;;;;;;;2.45;93.19;100612.88;4000005;86;21091;-89
2021/12/18 09:33:15;;;;;;;24.98;11.28;;;;;;;2.56;93.35;100600.07;4006861;87;21085;-90
2021/12/18 09:39:17;;;;;;;21.33;10.85;;;;;;;2.60;93.12;100595.16;3997163;86;21092;-90
2021/12/18 09:45:18;;;;;;;26.25;12.55;;;;;;;2.64;92.58;100592.70;3998892;86;21037;-89
2021/12/18 09:51:27;;;;;;;30.43;14.63;;;;;;;2.66;92.83;100576.45;4016149;87;21866;-89
2021/12/18 09:57:26;;;;;;;28.83;14.13;;;;;;;2.75;92.58;100585.58;4012121;87;21107;-91
2021/12/18 10:03:49;;;;;;;26.60;14.30;;;;;;;2.78;92.44;100581.48;4016626;87;21643;-89
2021/12/18 10:09:57;;;;;;;30.20;14.23;;;;;;;2.86;92.48;100574.10;4005966;87;21651;-88
2021/12/18 10:16:11;;;;;;;30.35;14.07;;;;;;;2.90;92.01;100566.48;3988103;87;21070;-92
2021/12/18 10:22:13;;;;;;;33.15;15.03;;;;;;;2.82;91.79;100541.41;3896507;89;21139;-89
2021/12/18 10:28:20;;;;;;;29.77;14.38;;;;;;;2.84;91.72;100537.06;3897196;89;21113;-89
2021/12/18 10:34:27;;;;;;;27.87;13.62;;;;;;;2.79;91.45;100537.11;3895124;89;21174;-88
2021/12/18 10:40:46;;;;;;;25.82;13.05;;;;;;;2.74;90.93;100533.13;3884713;89;21071;-86
2021/12/18 10:46:49;;;;;;;22.98;11.60;;;;;;;2.72;91.29;100543.42;3876450;90;21057;-86
2021/12/18 10:53:06;;;;;;;29.50;13.50;;;;;;;2.72;91.17;100529.36;3851523;90;21844;-87
2021/12/18 10:59:19;;;;;;;;;;;;;;;2.74;90.58;100518.26;3897833;89;21146;-89
2021/12/18 11:05:21;;;;;;;32.83;12.80;;;;;;;2.76;90.94;100512.81;3897434;90;20641;-90
2021/12/18 11:17:37;;;;;;;32.00;14.10;;;;;;;2.64;90.67;100502.94;3767034;93;21089;-89
2021/12/18 11:23:57;;;;;;;26.90;13.50;;;;;;;2.68;90.89;100490.98;3828428;91;21659;-89
2021/12/18 11:30:09;;;;;;;30.45;13.60;;;;;;;2.71;90.71;100487.17;3831941;91;21086;-90
2021/12/18 11:36:11;;;;;;;27.85;12.58;;;;;;;2.73;90.72;100484.17;3756656;92;21703;-89
2021/12/18 11:42:15;;;;;;;30.08;13.75;;;;;;;2.75;90.48;100470.64;3842327;90;22079;-90
2021/12/18 11:48:16;;;;;;;35.60;15.08;;;;;;;2.80;90.57;100475.97;3834779;91;21131;-88
2021/12/18 11:54:48;;;;;;;30.90;13.88;;;;;;;2.77;90.16;100467.66;3835442;91;21112;-89
2021/12/18 12:00:56;;;;;;;33.33;15.38;;;;;;;2.77;89.80;100463.03;3948086;88;21080;-88
2021/12/18 12:07:03;;;;;;;34.48;15.28;;;;;;;2.74;89.93;100453.36;3914396;89;21189;-89
2021/12/18 12:13:07;;;;;;;36.68;16.17;;;;;;;2.75;90.12;100439.55;3913044;90;21049;-89
2021/12/18 12:19:20;;;;;;;33.92;14.60;;;;;;;2.83;89.95;100440.27;3945187;88;21651;-89
2021/12/18 12:25:36;;;;;;;36.10;15.98;;;;;;;2.84;90.00;100436.45;3940846;88;21144;-89
2021/12/18 12:31:40;;;;;;;;;;;;;;;2.79;89.71;100408.66;3899428;89;21156;-89
2021/12/18 12:37:46;;;;;;;37.75;16.27;;;;;;;2.78;89.54;100405.70;3898093;90;20228;-89
2021/12/18 12:43:48;;;;;;;39.70;18.92;;;;;;;2.80;89.78;100394.06;3900585;89;21984;-88
2021/12/18 12:49:53;;;;;;;40.28;18.73;;;;;;;2.84;89.55;100386.96;3939362;88;21588;-90
2021/12/18 12:55:54;;;;;;;47.25;21.87;;;;;;;2.78;89.27;100378.66;3943071;88;21293;-91
2021/12/18 13:01:56;;;;;;;46.20;22.25;;;;;;;2.71;89.44;100372.25;3859064;90;21182;-89
2021/12/18 13:08:00;;;;;;;54.83;26.30;;;;;;;2.73;89.58;100379.53;3877612;89;22004;-90
2021/12/18 13:14:02;;;;;;;62.60;30.12;;;;;;;2.79;89.78;100374.31;3855929;90;21067;-89
2021/12/18 13:20:06;;;;;;;59.90;29.25;;;;;;;2.75;89.53;100364.38;4048433;86;21682;-89
2021/12/18 13:26:12;;;;;;;62.75;30.10;;;;;;;2.71;89.07;100342.51;4026147;87;21634;-89
2021/12/18 13:32:16;;;;;;;64.40;27.98;;;;;;;2.69;89.60;100347.96;4045361;86;21060;-89
2021/12/18 13:38:22;;;;;;;67.35;28.57;;;;;;;2.71;89.74;100361.44;4049092;87;21083;-92
2021/12/18 13:44:23;;;;;;;61.75;28.52;;;;;;;2.69;89.52;100369.02;4056097;86;21068;-91
2021/12/18 13:50:25;;;;;;;64.47;30.12;;;;;;;2.65;89.46;100355.84;4057519;86;21072;-90
2021/12/18 13:56:45;;;;;;;59.83;28.95;;;;;;;2.62;89.44;100333.45;4040594;85;21524;-90
2021/12/18 14:02:48;;;;;;;59.10;27.62;;;;;;;2.60;89.71;100328.86;4005555;87;21133;-91
2021/12/18 14:09:00;;;;;;;63.78;30.90;;;;;;;2.50;89.84;100330.91;4011356;86;21153;-93
2021/12/18 14:15:02;;;;;;;56.75;26.95;;;;;;;2.44;90.30;100328.02;4007778;87;21086;-89
2021/12/18 14:21:05;;;;;;;55.25;27.73;;;;;;;2.38;90.85;100329.17;3938650;88;21145;-89
2021/12/18 14:27:11;;;;;;;59.48;28.90;;;;;;;2.36;90.83;100332.16;3941136;88;21545;-90
2021/12/18 14:33:14;;;;;;;66.15;28.92;;;;;;;2.35;90.76;100329.19;3942827;88;21391;-92
2021/12/18 14:39:24;;;;;;;62.25;28.38;;;;;;;2.34;90.97;100341.09;3942303;88;21093;-88
2021/12/18 14:45:30;;;;;;;62.98;28.32;;;;;;;2.33;90.90;100316.53;3989887;86;37694;-89
2021/12/18 14:51:31;;;;;;;62.05;28.90;;;;;;;2.33;90.78;100296.80;3956226;88;21270;-93
2021/12/18 14:57:33;;;;;;;60.83;30.92;;;;;;;2.32;91.02;100291.15;3988420;87;21068;-90
2021/12/18 15:03:48;;;;;;;63.63;32.45;;;;;;;2.33;91.03;100292.21;3978284;88;21137;-91
2021/12/18 15:09:58;;;;;;;71.35;30.80;;;;;;;2.34;91.14;100271.37;3981075;88;21749;-88
2021/12/18 15:16:15;;;;;;;73.85;33.48;;;;;;;2.34;91.39;100278.13;3906742;90;21525;-87
2021/12/18 15:22:18;;;;;;;74.70;34.08;;;;;;;2.33;91.42;100276.53;3972666;87;21587;-88
2021/12/18 15:28:22;;;;;;;70.80;31.02;;;;;;;2.32;91.57;100283.83;3992549;88;21226;-89
2021/12/18 15:34:25;;;;;;;61.15;28.92;;;;;;;2.34;91.72;100270.02;4078829;86;21074;-89
2021/12/18 15:40:26;;;;;;;63.68;29.40;;;;;;;2.33;92.03;100258.43;4078408;86;21625;-88
2021/12/18 15:46:29;;;;;;;68.28;33.00;;;;;;;2.32;92.19;100265.48;4058613;86;21058;-89
2021/12/18 15:52:31;;;;;;;68.42;31.07;;;;;;;2.32;92.30;100247.91;4081321;85;21102;-88
2021/12/18 15:58:33;;;;;;;67.25;30.43;;;;;;;2.33;92.32;100238.70;4096185;85;21558;-86
2021/12/18 16:04:35;;;;;;;72.47;32.40;;;;;;;2.31;92.34;100239.53;4076878;85;21048;-87
2021/12/18 16:10:40;;;;;;;67.80;32.03;;;;;;;2.29;92.58;100214.16;4050765;85;21119;-88
2021/12/18 16:16:41;;;;;;;60.67;30.57;;;;;;;2.26;92.69;100209.33;4057964;85;21038;-88
2021/12/18 16:22:43;;;;;;;60.67;29.75;;;;;;;2.17;92.76;100209.73;4054393;86;21084;-87
2021/12/18 16:28:49;;;;;;;63.58;29.12;;;;;;;2.09;93.07;100193.36;4056437;85;21671;-90
2021/12/18 16:34:51;;;;;;;;;;;;;;;2.02;93.10;100199.67;4055748;85;21050;-90
2021/12/18 16:40:53;;;;;;;62.05;28.07;;;;;;;1.99;93.32;100184.84;4066368;85;20951;-92
2021/12/18 16:46:55;;;;;;;53.40;24.77;;;;;;;1.96;93.54;100183.28;4056934;85;21094;-88
2021/12/18 16:52:57;;;;;;;54.85;26.68;;;;;;;1.98;93.78;100174.33;4068091;86;21042;-88
2021/12/18 16:58:58;;;;;;;56.75;26.00;;;;;;;1.97;93.87;100169.49;4076425;85;21027;-88
2021/12/18 17:05:00;;;;;;;63.50;26.80;;;;;;;2.00;93.70;100151.89;4048579;86;21984;-91
2021/12/18 17:11:03;;;;;;;54.58;25.65;;;;;;;2.03;93.59;100138.62;4074562;85;21064;-89
2021/12/18 17:17:05;;;;;;;46.53;23.00;;;;;;;2.08;93.51;100129.64;4059544;85;21074;-88
2021/12/18 17:23:06;;;;;;;53.08;23.95;;;;;;;2.12;93.49;100123.89;4072519;85;21106;-87
2021/12/18 17:29:08;;;;;;;49.38;22.10;;;;;;;2.18;93.52;100121.37;4047836;86;21067;-88
2021/12/18 17:35:10;;;;;;;38.13;17.65;;;;;;;2.23;93.50;100117.25;4060533;86;21074;-88
2021/12/18 17:41:12;;;;;;;44.77;20.17;;;;;;;2.32;93.15;100107.41;4034830;86;21086;-90
2021/12/18 17:47:13;;;;;;;43.87;20.45;;;;;;;2.36;93.24;100093.02;4064859;86;21065;-89
2021/12/18 17:53:16;;;;;;;43.23;21.20;;;;;;;2.39;93.19;100084.31;4069820;85;21089;-87
2021/12/18 17:59:17;;;;;;;40.75;17.70;;;;;;;2.43;93.21;100080.45;4068692;84;21909;-87
2021/12/18 18:05:20;;;;;;;41.42;18.45;;;;;;;2.48;93.05;100066.86;4058991;86;21094;-88
2021/12/18 18:11:25;;;;;;;42.27;19.67;;;;;;;2.51;92.99;100061.67;4064007;86;21127;-88
2021/12/18 18:17:26;;;;;;;37.28;17.98;;;;;;;2.54;92.88;100070.53;4064341;86;21178;-89
2021/12/18 18:23:29;;;;;;;42.10;17.50;;;;;;;2.57;93.00;100074.00;4051215;86;21098;-89
2021/12/18 18:29:30;;;;;;;36.80;19.02;;;;;;;2.61;93.07;100070.16;4062134;86;21065;-88
2021/12/18 18:35:32;;;;;;;41.18;17.55;;;;;;;2.65;93.05;100053.58;4055693;86;21078;-88
2021/12/18 18:41:34;;;;;;;39.65;18.25;;;;;;;2.68;93.23;100053.80;4051667;86;21724;-92
2021/12/18 18:47:37;;;;;;;38.65;16.80;;;;;;;2.75;93.16;100030.44;3941624;84;9999649;-89
2021/12/18 18:53:39;;;;;;;36.75;18.50;;;;;;;2.80;93.20;100012.20;4054729;86;21090;-90
2021/12/18 18:59:44;;;;;;;37.48;18.15;;;;;;;2.83;93.41;100028.39;4060165;85;21097;-89
2021/12/18 19:05:45;;;;;;;37.13;17.92;;;;;;;2.84;93.45;100024.03;4068823;86;21046;-89
2021/12/18 19:11:47;;;;;;;37.80;17.90;;;;;;;2.87;93.38;100011.81;4071744;86;21606;-90
2021/12/18 19:17:49;;;;;;;37.40;19.10;;;;;;;2.90;93.49;99992.27;4076635;86;21077;-89
2021/12/18 19:23:52;;;;;;;41.77;20.40;;;;;;;2.92;93.53;99983.31;4091202;86;21065;-89
2021/12/18 19:29:54;;;;;;;40.43;19.90;;;;;;;2.94;93.73;99976.49;4071507;86;21077;-88
2021/12/18 19:35:56;;;;;;;39.42;18.70;;;;;;;2.97;93.71;99980.52;4078385;86;21078;-90
2021/12/18 19:41:57;;;;;;;41.23;20.35;;;;;;;3.01;93.63;99957.97;4082803;86;21066;-89
2021/12/18 19:47:59;;;;;;;42.50;20.40;;;;;;;3.02;93.76;99958.78;4078649;85;21141;-88
2021/12/18 19:54:01;;;;;;;45.05;20.57;;;;;;;3.04;93.84;99948.44;4086652;86;21077;-89
2021/12/18 20:00:06;;;;;;;41.90;20.48;;;;;;;3.05;93.99;99954.90;4084484;85;21059;-87
2021/12/18 20:06:10;;;;;;;40.25;20.02;;;;;;;3.06;94.07;99953.81;3993538;86;21102;-89
2021/12/18 20:12:13;;;;;;;40.40;19.95;;;;;;;3.08;94.12;99944.05;3994686;87;21097;-89
2021/12/18 20:18:16;;;;;;;45.65;21.05;;;;;;;3.09;94.17;99950.50;3940419;87;21059;-88
2021/12/18 20:24:22;;;;;;;42.65;21.15;;;;;;;3.11;94.22;99938.02;4006088;88;21142;-89
2021/12/18 20:30:24;;;;;;;43.52;20.40;;;;;;;3.13;94.17;99933.13;3953704;88;21192;-89
2021/12/18 20:36:34;;;;;;;47.75;22.13;;;;;;;3.15;94.12;99915.47;3985163;87;21111;-91
2021/12/18 20:42:40;;;;;;;45.63;21.82;;;;;;;3.17;94.13;99907.05;4066123;84;21083;-89
2021/12/18 20:48:41;;;;;;;46.77;20.10;;;;;;;3.18;94.22;99902.68;4096564;86;21668;-90
2021/12/18 20:54:43;;;;;;;47.48;22.15;;;;;;;3.18;94.20;99893.75;4085792;86;21053;-87
2021/12/18 21:00:46;;;;;;;56.98;24.95;;;;;;;3.21;94.28;99871.53;4069406;84;21038;-89
2021/12/18 21:06:48;;;;;;;53.52;24.82;;;;;;;3.23;94.29;99861.75;4000680;86;21143;-89
2021/12/18 21:12:50;;;;;;;55.85;25.40;;;;;;;3.24;94.41;99850.05;3949746;88;21206;-91
2021/12/18 21:18:51;;;;;;;47.90;25.25;;;;;;;3.28;94.56;99842.13;4021853;86;21107;-88
2021/12/18 21:24:53;;;;;;;50.15;24.20;;;;;;;3.26;94.72;99819.20;3918134;89;21181;-92
2021/12/18 21:30:58;;;;;;;49.03;25.30;;;;;;;3.29;94.80;99851.05;3984055;88;21596;-89
2021/12/18 21:37:01;;;;;;;53.45;25.70;;;;;;;3.30;94.81;99860.76;3917514;90;21082;-89
2021/12/18 21:43:03;;;;;;;59.60;26.10;;;;;;;3.31;95.01;99832.58;3936942;89;21632;-88
2021/12/18 21:49:06;;;;;;;59.05;27.30;;;;;;;3.32;95.09;99826.86;3963876;88;21177;-88
2021/12/18 21:55:08;;;;;;;61.30;27.35;;;;;;;3.32;95.30;99821.45;3903099;89;21452;-89
2021/12/18 22:01:11;;;;;;;54.53;26.37;;;;;;;3.35;95.46;99822.76;3968427;87;21110;-89
2021/12/18 22:07:13;;;;;;;51.50;23.92;;;;;;;3.36;95.51;99798.64;4003979;88;21138;-87
2021/12/18 22:13:14;;;;;;;56.10;25.88;;;;;;;3.37;95.71;99790.78;3999148;88;21726;-88
2021/12/18 22:19:16;;;;;;;58.92;28.45;;;;;;;3.37;95.99;99778.03;3988232;87;21090;-89
2021/12/18 22:25:18;;;;;;;62.33;27.32;;;;;;;3.37;96.33;99763.72;3975384;88;21089;-88
2021/12/18 22:31:20;;;;;;;63.42;29.40;;;;;;;3.38;96.53;99758.00;3968819;88;21139;-87
2021/12/18 22:37:21;;;;;;;59.25;29.67;;;;;;;3.40;97.00;99750.34;3963253;89;21680;-89
2021/12/18 22:43:22;;;;;;;62.35;29.50;;;;;;;3.41;97.26;99727.60;3947929;89;21062;-89
2021/12/18 22:49:24;;;;;;;62.90;30.82;;;;;;;3.42;97.45;99737.31;3952020;89;21058;-88
2021/12/18 22:55:26;;;;;;;62.20;29.60;;;;;;;3.45;97.52;99712.33;3955326;88;21103;-88
2021/12/18 23:01:33;;;;;;;64.00;30.12;;;;;;;3.47;97.90;99697.94;3966182;87;21051;-88
2021/12/18 23:07:35;;;;;;;61.15;28.90;;;;;;;3.52;98.24;99710.53;3951651;89;21076;-88
2021/12/18 23:13:53;;;;;;;57.25;27.15;;;;;;;3.53;98.32;99680.45;3973030;88;21097;-88
2021/12/18 23:20:06;;;;;;;52.45;27.15;;;;;;;3.56;98.28;99679.82;3968939;89;21049;-90
2021/12/18 23:25:55;;;;;;;53.03;21.57;;;;;;;3.59;98.36;99654.83;3933191;89;21143;-90
2021/12/18 23:31:56;;;;;;;59.77;28.50;;;;;;;3.63;98.45;99644.18;3956476;88;21154;-88
2021/12/18 23:37:58;;;;;;;57.62;27.10;;;;;;;3.65;98.33;99648.73;3968164;87;21122;-87
2021/12/18 23:46:28;;;;;;;47.95;24.95;;;;;;;3.68;98.56;99633.98;3948360;89;21131;-90
2021/12/18 23:50:11;;;;;;;48.95;27.30;;;;;;;3.70;98.56;99619.59;3978368;88;21053;-88
2021/12/18 23:56:12;;;;;;;55.08;27.10;;;;;;;3.73;98.60;99622.24;3960443;88;21085;-88
